Time,TemperatureF,DewpointF,PressureIn,WindDirection,WindDirectionDegrees,WindSpeedMPH,WindSpeedGustMPH,Humidity,HourlyPrecipIn,Conditions,Clouds,dailyrainin,SoftwareType,DateUTC
2013-04-26 00:00:00,42.4,31.5,30.24,North,0,1.6,1.6,65,0.00,,,0.00,meteobridge,2013-04-26 04:00:00,
2013-04-26 00:02:00,42.4,31.5,30.24,North,0,1.6,1.6,65,0.00,,,0.00,meteobridge,2013-04-26 04:02:00,
2013-04-26 00:04:00,42.4,31.5,30.24,North,0,1.6,-999.0,65,0.00,,,0.00,meteobridge,2013-04-26 04:04:00,
2013-04-26 00:05:00,42.6,31.3,30.24,NE,45,1.6,1.6,64,0.00,,,0.00,meteobridge,2013-04-26 04:05:00,
2013-04-26 00:07:00,42.8,31.1,30.24,North,0,3.1,3.1,63,0.00,,,0.00,meteobridge,2013-04-26 04:07:00,
2013-04-26 00:21:00,41.9,30.9,30.24,North,0,2.2,2.2,65,0.00,,,0.00,meteobridge,2013-04-26 04:21:00,
2013-04-26 00:26:00,42.3,31.3,30.24,West,270,3.1,-999.0,65,0.00,,,0.00,meteobridge,2013-04-26 04:26:00,
2013-04-26 00:31:00,42.1,30.7,30.24,North,0,2.2,2.2,64,0.00,,,0.00,meteobridge,2013-04-26 04:31:00,
2013-04-26 00:38:00,41.4,30.6,30.24,East,90,1.6,-999.0,65,0.00,,,0.00,meteobridge,2013-04-26 04:38:00,
2013-04-26 00:45:00,41.0,30.6,30.25,East,90,0.0,-999.0,66,0.00,,,0.00,meteobridge,2013-04-26 04:45:00,
2013-04-26 00:51:00,39.7,30.4,30.24,East,90,0.0,0.0,69,0.00,,,0.00,meteobridge,2013-04-26 04:51:00,
2013-04-26 00:57:00,39.7,30.7,30.25,East,90,0.0,0.0,70,0.00,,,0.00,meteobridge,2013-04-26 04:57:00,
2013-04-26 01:03:00,39.7,31.5,30.25,West,270,0.0,0.0,72,0.00,,,0.00,meteobridge,2013-04-26 05:03:00,
2013-04-26 01:10:00,39.4,31.1,30.25,West,270,0.0,-999.0,72,0.00,,,0.00,meteobridge,2013-04-26 05:10:00,
2013-04-26 01:15:00,39.2,30.9,30.25,West,270,0.0,0.0,72,0.00,,,0.00,meteobridge,2013-04-26 05:15:00,
2013-04-26 01:21:00,40.1,32.2,30.25,East,90,0.0,0.0,73,0.00,,,0.00,meteobridge,2013-04-26 05:21:00,
2013-04-26 01:27:00,38.8,30.9,30.25,East,90,0.0,0.0,73,0.00,,,0.00,meteobridge,2013-04-26 05:27:00,
2013-04-26 01:34:00,38.1,30.2,30.25,West,270,0.0,-999.0,73,0.00,,,0.00,meteobridge,2013-04-26 05:34:00,
2013-04-26 01:42:00,38.5,31.3,30.25,North,0,0.0,-999.0,75,0.00,,,0.00,meteobridge,2013-04-26 05:42:00,
2013-04-26 01:49:00,38.5,31.3,30.25,East,90,0.0,-999.0,75,0.00,,,0.00,meteobridge,2013-04-26 05:49:00,
2013-04-26 01:54:00,37.9,30.7,30.25,North,0,0.0,0.0,75,0.00,,,0.00,meteobridge,2013-04-26 05:54:00,
2013-04-26 02:01:00,37.9,30.7,30.25,North,0,0.0,-999.0,75,0.00,,,0.00,meteobridge,2013-04-26 06:01:00,
2013-04-26 02:06:00,37.9,31.1,30.24,East,90,3.1,3.1,76,0.00,,,0.00,meteobridge,2013-04-26 06:06:00,
2013-04-26 02:19:00,36.9,28.9,30.25,North,0,0.0,-999.0,73,0.00,,,0.00,meteobridge,2013-04-26 06:19:00,
2013-04-26 02:27:00,37.4,30.9,30.25,East,90,2.2,-999.0,77,0.00,,,0.00,meteobridge,2013-04-26 06:27:00,
2013-04-26 02:36:00,36.7,28.8,30.25,West,270,1.6,-999.0,73,0.00,,,0.00,meteobridge,2013-04-26 06:36:00,
2013-04-26 02:41:00,36.0,28.2,30.25,West,270,2.2,2.2,73,0.00,,,0.00,meteobridge,2013-04-26 06:41:00,
2013-04-26 02:48:00,36.7,29.1,30.25,East,90,0.0,0.0,74,0.00,,,0.00,meteobridge,2013-04-26 06:48:00,
2013-04-26 02:53:00,36.5,28.9,30.25,West,270,1.6,-999.0,74,0.00,,,0.00,meteobridge,2013-04-26 06:53:00,
2013-04-26 02:58:00,36.1,28.6,30.25,West,270,0.0,0.0,74,0.00,,,0.00,meteobridge,2013-04-26 06:58:00,
2013-04-26 03:03:00,36.1,28.6,30.25,North,0,0.0,0.0,74,0.00,,,0.00,meteobridge,2013-04-26 07:03:00,
2013-04-26 03:08:00,36.7,29.1,30.25,North,0,1.6,1.6,74,0.00,,,0.00,meteobridge,2013-04-26 07:08:00,
2013-04-26 03:15:00,36.7,29.1,30.26,East,90,0.0,-999.0,74,0.00,,,0.00,meteobridge,2013-04-26 07:15:00,
2013-04-26 03:20:00,36.3,28.6,30.26,North,0,0.0,0.0,73,0.00,,,0.00,meteobridge,2013-04-26 07:20:00,
2013-04-26 03:25:00,36.0,28.2,30.26,North,0,0.0,-999.0,73,0.00,,,0.00,meteobridge,2013-04-26 07:25:00,
2013-04-26 03:30:00,35.4,28.2,30.26,North,0,0.0,-999.0,75,0.00,,,0.00,meteobridge,2013-04-26 07:30:00,
2013-04-26 03:41:00,35.4,28.6,30.26,North,0,0.0,-999.0,76,0.00,,,0.00,meteobridge,2013-04-26 07:41:00,
2013-04-26 03:48:00,35.8,28.6,30.26,North,0,0.0,-999.0,75,0.00,,,0.00,meteobridge,2013-04-26 07:48:00,
2013-04-26 03:54:00,35.6,28.4,30.26,East,90,1.6,1.6,75,0.00,,,0.00,meteobridge,2013-04-26 07:54:00,
2013-04-26 03:59:00,35.4,28.6,30.26,East,90,0.0,0.0,76,0.00,,,0.00,meteobridge,2013-04-26 07:59:00,
2013-04-26 04:04:00,35.2,28.4,30.26,North,0,0.7,0.7,76,0.00,,,0.00,meteobridge,2013-04-26 08:04:00,
2013-04-26 04:10:00,35.2,28.4,30.27,North,0,0.7,-999.0,76,0.00,,,0.00,meteobridge,2013-04-26 08:10:00,
2013-04-26 04:16:00,34.9,28.4,30.27,South,180,0.0,0.0,77,0.00,,,0.00,meteobridge,2013-04-26 08:16:00,
2013-04-26 04:26:00,35.1,28.6,30.27,East,90,0.7,-999.0,77,0.00,,,0.00,meteobridge,2013-04-26 08:26:00,
2013-04-26 04:31:00,34.5,28.0,30.27,North,0,0.0,-999.0,77,0.00,,,0.00,meteobridge,2013-04-26 08:31:00,
2013-04-26 04:37:00,34.9,28.8,30.27,East,90,0.7,-999.0,78,0.00,,,0.00,meteobridge,2013-04-26 08:37:00,
2013-04-26 04:42:00,34.3,28.2,30.27,North,0,0.0,0.0,78,0.00,,,0.00,meteobridge,2013-04-26 08:42:00,
2013-04-26 04:47:00,34.3,28.2,30.27,North,0,0.0,0.0,78,0.00,,,0.00,meteobridge,2013-04-26 08:47:00,
2013-04-26 04:54:00,34.5,28.8,30.27,East,90,1.6,1.6,79,0.00,,,0.00,meteobridge,2013-04-26 08:54:00,
2013-04-26 04:59:00,34.3,28.6,30.27,East,90,0.7,0.7,79,0.00,,,0.00,meteobridge,2013-04-26 08:59:00,
2013-04-26 05:05:00,33.1,27.5,30.28,West,270,0.0,0.0,80,0.00,,,0.00,meteobridge,2013-04-26 09:05:00,
2013-04-26 05:16:00,33.3,27.7,30.28,West,270,1.6,-999.0,80,0.00,,,0.00,meteobridge,2013-04-26 09:16:00,
2013-04-26 05:23:00,35.8,28.9,30.28,East,90,0.0,-999.0,76,0.00,,,0.00,meteobridge,2013-04-26 09:23:00,
2013-04-26 05:29:00,33.8,27.3,30.28,East,90,0.7,0.7,77,0.00,,,0.00,meteobridge,2013-04-26 09:29:00,
2013-04-26 05:34:00,33.4,27.7,30.29,East,90,0.0,0.0,79,0.00,,,0.00,meteobridge,2013-04-26 09:34:00,
2013-04-26 05:39:00,32.9,27.5,30.29,East,90,0.0,-999.0,80,0.00,,,0.00,meteobridge,2013-04-26 09:39:00,
2013-04-26 05:45:00,33.4,28.2,30.29,East,90,1.6,1.6,81,0.00,,,0.00,meteobridge,2013-04-26 09:45:00,
2013-04-26 05:51:00,33.4,28.6,30.29,East,90,0.0,0.0,82,0.00,,,0.00,meteobridge,2013-04-26 09:51:00,
2013-04-26 05:56:00,34.5,29.7,30.30,West,270,0.0,0.0,82,0.00,,,0.00,meteobridge,2013-04-26 09:56:00,
2013-04-26 06:01:00,33.8,28.6,30.30,West,270,0.0,0.0,81,0.00,,,0.00,meteobridge,2013-04-26 10:01:00,
2013-04-26 06:12:00,33.3,28.6,30.30,East,90,0.0,-999.0,83,0.00,,,0.00,meteobridge,2013-04-26 10:12:00,
2013-04-26 06:21:00,33.4,28.8,30.30,North,0,0.0,-999.0,83,0.00,,,0.00,meteobridge,2013-04-26 10:21:00,
2013-04-26 06:26:00,33.6,28.9,30.31,East,90,0.0,0.0,83,0.00,,,0.00,meteobridge,2013-04-26 10:26:00,
2013-04-26 06:34:00,33.8,28.6,30.31,East,90,1.6,-999.0,81,0.00,,,0.00,meteobridge,2013-04-26 10:34:00,
2013-04-26 06:40:00,34.0,28.8,30.31,North,0,0.0,0.0,81,0.00,,,0.00,meteobridge,2013-04-26 10:40:00,
2013-04-26 06:45:00,34.3,29.1,30.32,West,270,0.0,-999.0,81,0.00,,,0.00,meteobridge,2013-04-26 10:45:00,
2013-04-26 06:50:00,34.3,28.8,30.32,North,0,0.0,-999.0,80,0.00,,,0.00,meteobridge,2013-04-26 10:50:00,
2013-04-26 06:58:00,35.8,29.7,30.32,North,0,2.2,-999.0,78,0.00,,,0.00,meteobridge,2013-04-26 10:58:00,
2013-04-26 07:07:00,35.8,28.9,30.33,NW,315,3.1,-999.0,76,0.00,,,0.00,meteobridge,2013-04-26 11:07:00,
2013-04-26 07:13:00,32.0,-18.4,30.33,East,90,2.2,2.2,10,0.00,,,0.00,meteobridge,2013-04-26 11:13:00,
2013-04-26 07:20:00,37.4,31.1,30.33,North,0,1.6,-999.0,78,0.00,,,0.00,meteobridge,2013-04-26 11:20:00,
2013-04-26 07:25:00,37.6,31.1,30.33,North,0,0.7,3.1,77,0.00,,,0.00,meteobridge,2013-04-26 11:25:00,
2013-04-26 07:32:00,37.6,30.4,30.33,North,0,0.7,0.7,75,0.00,,,0.00,meteobridge,2013-04-26 11:32:00,
2013-04-26 07:37:00,38.7,31.1,30.34,North,0,1.6,2.2,74,0.00,,,0.00,meteobridge,2013-04-26 11:37:00,
2013-04-26 07:43:00,40.1,31.5,30.34,North,0,2.2,2.2,71,0.00,,,0.00,meteobridge,2013-04-26 11:43:00,
2013-04-26 07:48:00,40.3,31.3,30.34,North,0,3.1,3.1,70,0.00,,,0.00,meteobridge,2013-04-26 11:48:00,
2013-04-26 07:53:00,41.0,30.9,30.34,North,0,3.1,3.1,67,0.00,,,0.00,meteobridge,2013-04-26 11:53:00,
2013-04-26 08:00:00,41.0,30.9,30.34,North,0,3.1,-999.0,67,0.00,,,0.00,meteobridge,2013-04-26 12:00:00,
2013-04-26 08:09:00,42.4,31.1,30.34,NW,315,3.8,-999.0,64,0.00,,,0.00,meteobridge,2013-04-26 12:09:00,
2013-04-26 08:15:00,44.1,32.4,30.35,North,0,3.8,-999.0,63,0.00,,,0.00,meteobridge,2013-04-26 12:15:00,
2013-04-26 08:21:00,46.0,32.5,30.35,North,0,5.4,5.4,59,0.00,,,0.00,meteobridge,2013-04-26 12:21:00,
2013-04-26 08:26:00,46.9,33.4,30.35,SE,135,3.8,-999.0,59,0.00,,,0.00,meteobridge,2013-04-26 12:26:00,
2013-04-26 08:31:00,47.3,32.9,30.35,East,90,2.2,3.8,57,0.00,,,0.00,meteobridge,2013-04-26 12:31:00,
2013-04-26 08:42:00,47.7,32.7,30.35,NW,315,3.8,-999.0,56,0.00,,,0.00,meteobridge,2013-04-26 12:42:00,
2013-04-26 08:49:00,49.8,32.0,30.35,West,270,3.1,-999.0,50,0.00,,,0.00,meteobridge,2013-04-26 12:49:00,
2013-04-26 08:54:00,49.8,32.0,30.35,North,0,5.4,-999.0,50,0.00,,,0.00,meteobridge,2013-04-26 12:54:00,
2013-04-26 09:00:00,50.7,31.8,30.35,North,0,3.1,3.1,48,0.00,,,0.00,meteobridge,2013-04-26 13:00:00,
2013-04-26 09:08:00,51.8,30.0,30.34,West,270,7.6,-999.0,43,0.00,,,0.00,meteobridge,2013-04-26 13:08:00,
2013-04-26 09:17:00,52.3,28.8,30.34,North,0,6.0,-999.0,40,0.00,,,0.00,meteobridge,2013-04-26 13:17:00,
2013-04-26 09:30:00,51.6,26.8,30.35,West,270,6.9,-999.0,38,0.00,,,0.00,meteobridge,2013-04-26 13:30:00,
2013-04-26 09:37:00,52.9,25.9,30.35,NW,315,11.4,11.4,35,0.00,,,0.00,meteobridge,2013-04-26 13:37:00,
2013-04-26 09:43:00,53.4,26.4,30.35,SW,225,6.0,6.0,35,0.00,,,0.00,meteobridge,2013-04-26 13:43:00,